<?xml version="1.0" encoding="UTF-8" standalone="no" ?>
<gpx xmlns="http://www.topografix.com/GPX/1/1" xmlns:xsi="http://www.w3.org/2001/XMLSchema-instance" xsi:schemaLocation="http://www.topografix.com/GPX/1/1 http://www.topografix.com/GPX/1/1/gpx.xsd" version="1.1" creator="VisuGPX - https://www.visugpx.com">
  <metadata>
    <name>Gîte du Trait - Ongles</name>
    <desc><![CDATA[J2 retour depuis le gîte du Trait! Un seul point d'eau: la fontaine de Banon]]></desc>
  </metadata>
  <trk>
    <name><![CDATA[OR-7966337--Redortiers:Le trait - Ongles]]></name>
    <trkseg>
      <trkpt lat="44.11354" lon="5.62747">
        <ele>1197</ele>
        <time>2017-10-11T15:10:53Z</time>
      </trkpt>
      <trkpt lat="44.11422" lon="5.62657">
        <ele>1198</ele>
        <time>2017-10-11T15:12:53Z</time>
      </trkpt>
      <trkpt lat="44.11397" lon="5.62468">
        <ele>1196</ele>
        <time>2017-10-11T15:14:53Z</time>
      </trkpt>
      <trkpt lat="44.11272" lon="5.62387">
        <ele>1188</ele>
        <time>2017-10-11T15:16:53Z</time>
      </trkpt>
      <trkpt lat="44.11181" lon="5.62375">
        <ele>1183</ele>
        <time>2017-10-11T15:18:53Z</time>
      </trkpt>
      <trkpt lat="44.10933" lon="5.62229">
        <ele>1156</ele>
        <time>2017-10-11T15:20:53Z</time>
      </trkpt>
      <trkpt lat="44.10776" lon="5.62106">
        <ele>1141</ele>
        <time>2017-10-11T15:22:53Z</time>
      </trkpt>
      <trkpt lat="44.1075" lon="5.62068">
        <ele>1140</ele>
        <time>2017-10-11T15:24:53Z</time>
      </trkpt>
      <trkpt lat="44.10583" lon="5.62076">
        <ele>1132</ele>
        <time>2017-10-11T15:26:53Z</time>
      </trkpt>
      <trkpt lat="44.10509" lon="5.62166">
        <ele>1130</ele>
        <time>2017-10-11T15:28:53Z</time>
      </trkpt>
      <trkpt lat="44.1029" lon="5.62276">
        <ele>1157</ele>
        <time>2017-10-11T15:30:53Z</time>
      </trkpt>
      <trkpt lat="44.09998" lon="5.62396">
        <ele>1147</ele>
        <time>2017-10-11T15:32:53Z</time>
      </trkpt>
      <trkpt lat="44.09924" lon="5.6237">
        <ele>1147</ele>
        <time>2017-10-11T15:34:53Z</time>
      </trkpt>
      <trkpt lat="44.09814" lon="5.62304">
        <ele>1151</ele>
        <time>2017-10-11T15:36:53Z</time>
      </trkpt>
      <trkpt lat="44.09682" lon="5.62323">
        <ele>1159</ele>
        <time>2017-10-11T15:38:53Z</time>
      </trkpt>
      <trkpt lat="44.09461" lon="5.62366">
        <ele>1145</ele>
        <time>2017-10-11T15:40:53Z</time>
      </trkpt>
      <trkpt lat="44.09213" lon="5.62454">
        <ele>1134</ele>
        <time>2017-10-11T15:42:53Z</time>
      </trkpt>
      <trkpt lat="44.0894" lon="5.62516">
        <ele>1132</ele>
        <time>2017-10-11T15:44:53Z</time>
      </trkpt>
      <trkpt lat="44.08719" lon="5.62437">
        <ele>1121</ele>
        <time>2017-10-11T15:46:53Z</time>
      </trkpt>
      <trkpt lat="44.08591" lon="5.62381">
        <ele>1119</ele>
        <time>2017-10-11T15:48:53Z</time>
      </trkpt>
      <trkpt lat="44.08376" lon="5.62364">
        <ele>1123</ele>
        <time>2017-10-11T15:50:53Z</time>
      </trkpt>
      <trkpt lat="44.08133" lon="5.62402">
        <ele>1108</ele>
        <time>2017-10-11T15:52:53Z</time>
      </trkpt>
      <trkpt lat="44.07979" lon="5.62377">
        <ele>1088</ele>
        <time>2017-10-11T15:54:53Z</time>
      </trkpt>
      <trkpt lat="44.07902" lon="5.62394">
        <ele>1076</ele>
        <time>2017-10-11T15:56:53Z</time>
      </trkpt>
      <trkpt lat="44.07707" lon="5.62413">
        <ele>1048</ele>
        <time>2017-10-11T15:58:53Z</time>
      </trkpt>
      <trkpt lat="44.07492" lon="5.62227">
        <ele>1025</ele>
        <time>2017-10-11T16:00:53Z</time>
      </trkpt>
      <trkpt lat="44.07512" lon="5.62207">
        <ele>1022</ele>
        <time>2017-10-11T16:02:53Z</time>
      </trkpt>
      <trkpt lat="44.07458" lon="5.62194">
        <ele>1013</ele>
        <time>2017-10-11T16:04:53Z</time>
      </trkpt>
      <trkpt lat="44.07529" lon="5.62132">
        <ele>1004</ele>
        <time>2017-10-11T16:06:53Z</time>
      </trkpt>
      <trkpt lat="44.07305" lon="5.62128">
        <ele>967</ele>
        <time>2017-10-11T16:08:53Z</time>
      </trkpt>
      <trkpt lat="44.07257" lon="5.62147">
        <ele>957</ele>
        <time>2017-10-11T16:10:53Z</time>
      </trkpt>
      <trkpt lat="44.07219" lon="5.62096">
        <ele>950</ele>
        <time>2017-10-11T16:12:53Z</time>
      </trkpt>
      <trkpt lat="44.07211" lon="5.62048">
        <ele>950</ele>
        <time>2017-10-11T16:14:53Z</time>
      </trkpt>
      <trkpt lat="44.07203" lon="5.61999">
        <ele>953</ele>
        <time>2017-10-11T16:16:53Z</time>
      </trkpt>
      <trkpt lat="44.07145" lon="5.61995">
        <ele>952</ele>
        <time>2017-10-11T16:18:53Z</time>
      </trkpt>
      <trkpt lat="44.07051" lon="5.6189">
        <ele>968</ele>
        <time>2017-10-11T16:20:53Z</time>
      </trkpt>
      <trkpt lat="44.069" lon="5.61806">
        <ele>972</ele>
        <time>2017-10-11T16:22:53Z</time>
      </trkpt>
      <trkpt lat="44.06748" lon="5.61658">
        <ele>990</ele>
        <time>2017-10-11T16:24:53Z</time>
      </trkpt>
      <trkpt lat="44.06772" lon="5.6157">
        <ele>1004</ele>
        <time>2017-10-11T16:26:53Z</time>
      </trkpt>
      <trkpt lat="44.06708" lon="5.61559">
        <ele>1002</ele>
        <time>2017-10-11T16:28:53Z</time>
      </trkpt>
      <trkpt lat="44.06551" lon="5.61572">
        <ele>998</ele>
        <time>2017-10-11T16:30:53Z</time>
      </trkpt>
      <trkpt lat="44.06468" lon="5.61574">
        <ele>996</ele>
        <time>2017-10-11T16:32:53Z</time>
      </trkpt>
      <trkpt lat="44.06349" lon="5.61625">
        <ele>997</ele>
        <time>2017-10-11T16:34:53Z</time>
      </trkpt>
      <trkpt lat="44.06232" lon="5.61649">
        <ele>998</ele>
        <time>2017-10-11T16:36:53Z</time>
      </trkpt>
      <trkpt lat="44.05865" lon="5.61666">
        <ele>991</ele>
        <time>2017-10-11T16:38:53Z</time>
      </trkpt>
      <trkpt lat="44.05751" lon="5.61587">
        <ele>982</ele>
        <time>2017-10-11T16:40:53Z</time>
      </trkpt>
      <trkpt lat="44.05475" lon="5.61587">
        <ele>954</ele>
        <time>2017-10-11T16:42:53Z</time>
      </trkpt>
      <trkpt lat="44.05382" lon="5.61551">
        <ele>945</ele>
        <time>2017-10-11T16:44:53Z</time>
      </trkpt>
      <trkpt lat="44.05328" lon="5.61551">
        <ele>937</ele>
        <time>2017-10-11T16:46:53Z</time>
      </trkpt>
      <trkpt lat="44.05259" lon="5.61548">
        <ele>936</ele>
        <time>2017-10-11T16:48:53Z</time>
      </trkpt>
      <trkpt lat="44.05089" lon="5.61551">
        <ele>936</ele>
        <time>2017-10-11T16:50:53Z</time>
      </trkpt>
      <trkpt lat="44.04958" lon="5.61566">
        <ele>946</ele>
        <time>2017-10-11T16:52:53Z</time>
      </trkpt>
      <trkpt lat="44.04843" lon="5.61542">
        <ele>950</ele>
        <time>2017-10-11T16:54:53Z</time>
      </trkpt>
      <trkpt lat="44.04859" lon="5.61488">
        <ele>953</ele>
        <time>2017-10-11T16:56:53Z</time>
      </trkpt>
      <trkpt lat="44.04738" lon="5.61407">
        <ele>950</ele>
        <time>2017-10-11T16:58:53Z</time>
      </trkpt>
      <trkpt lat="44.0462" lon="5.61388">
        <ele>952</ele>
        <time>2017-10-11T17:00:53Z</time>
      </trkpt>
      <trkpt lat="44.04399" lon="5.61369">
        <ele>949</ele>
        <time>2017-10-11T17:02:53Z</time>
      </trkpt>
      <trkpt lat="44.04201" lon="5.61326">
        <ele>947</ele>
        <time>2017-10-11T17:04:53Z</time>
      </trkpt>
      <trkpt lat="44.0397" lon="5.61163">
        <ele>927</ele>
        <time>2017-10-11T17:06:53Z</time>
      </trkpt>
      <trkpt lat="44.03812" lon="5.61107">
        <ele>916</ele>
        <time>2017-10-11T17:08:53Z</time>
      </trkpt>
      <trkpt lat="44.03692" lon="5.61047">
        <ele>912</ele>
        <time>2017-10-11T17:10:53Z</time>
      </trkpt>
      <trkpt lat="44.03571" lon="5.61009">
        <ele>907</ele>
        <time>2017-10-11T17:12:53Z</time>
      </trkpt>
      <trkpt lat="44.03482" lon="5.61">
        <ele>904</ele>
        <time>2017-10-11T17:14:53Z</time>
      </trkpt>
      <trkpt lat="44.0334" lon="5.60918">
        <ele>894</ele>
        <time>2017-10-11T17:16:53Z</time>
      </trkpt>
      <trkpt lat="44.03269" lon="5.6091">
        <ele>884</ele>
        <time>2017-10-11T17:18:53Z</time>
      </trkpt>
      <trkpt lat="44.03195" lon="5.60858">
        <ele>874</ele>
        <time>2017-10-11T17:20:53Z</time>
      </trkpt>
      <trkpt lat="44.03115" lon="5.60833">
        <ele>877</ele>
        <time>2017-10-11T17:22:53Z</time>
      </trkpt>
      <trkpt lat="44.03059" lon="5.60721">
        <ele>884</ele>
        <time>2017-10-11T17:24:53Z</time>
      </trkpt>
      <trkpt lat="44.03037" lon="5.60773">
        <ele>889</ele>
        <time>2017-10-11T17:26:53Z</time>
      </trkpt>
      <trkpt lat="44.02979" lon="5.60712">
        <ele>900</ele>
        <time>2017-10-11T17:28:53Z</time>
      </trkpt>
      <trkpt lat="44.03008" lon="5.60688">
        <ele>897</ele>
        <time>2017-10-11T17:30:53Z</time>
      </trkpt>
      <trkpt lat="44.03053" lon="5.60767">
        <ele>887</ele>
        <time>2017-10-11T17:32:53Z</time>
      </trkpt>
      <trkpt lat="44.03049" lon="5.6071">
        <ele>886</ele>
        <time>2017-10-11T17:34:53Z</time>
      </trkpt>
      <trkpt lat="44.03118" lon="5.60817">
        <ele>875</ele>
        <time>2017-10-11T17:36:53Z</time>
      </trkpt>
      <trkpt lat="44.03056" lon="5.60844">
        <ele>875</ele>
        <time>2017-10-11T17:38:53Z</time>
      </trkpt>
      <trkpt lat="44.0311" lon="5.60891">
        <ele>866</ele>
        <time>2017-10-11T17:40:53Z</time>
      </trkpt>
      <trkpt lat="44.03149" lon="5.6092">
        <ele>867</ele>
        <time>2017-10-11T17:42:53Z</time>
      </trkpt>
      <trkpt lat="44.03221" lon="5.61018">
        <ele>854</ele>
        <time>2017-10-11T17:44:53Z</time>
      </trkpt>
      <trkpt lat="44.03283" lon="5.61074">
        <ele>854</ele>
        <time>2017-10-11T17:46:53Z</time>
      </trkpt>
      <trkpt lat="44.03345" lon="5.61198">
        <ele>847</ele>
        <time>2017-10-11T17:48:53Z</time>
      </trkpt>
      <trkpt lat="44.03383" lon="5.61335">
        <ele>833</ele>
        <time>2017-10-11T17:50:53Z</time>
      </trkpt>
      <trkpt lat="44.03438" lon="5.61427">
        <ele>833</ele>
        <time>2017-10-11T17:52:53Z</time>
      </trkpt>
      <trkpt lat="44.03386" lon="5.61479">
        <ele>828</ele>
        <time>2017-10-11T17:54:53Z</time>
      </trkpt>
      <trkpt lat="44.03349" lon="5.61522">
        <ele>826</ele>
        <time>2017-10-11T17:56:53Z</time>
      </trkpt>
      <trkpt lat="44.03332" lon="5.61561">
        <ele>827</ele>
        <time>2017-10-11T17:58:53Z</time>
      </trkpt>
      <trkpt lat="44.03343" lon="5.61637">
        <ele>832</ele>
        <time>2017-10-11T18:00:53Z</time>
      </trkpt>
      <trkpt lat="44.03361" lon="5.6169">
        <ele>832</ele>
        <time>2017-10-11T18:02:53Z</time>
      </trkpt>
      <trkpt lat="44.03404" lon="5.61714">
        <ele>836</ele>
        <time>2017-10-11T18:04:53Z</time>
      </trkpt>
      <trkpt lat="44.03401" lon="5.61791">
        <ele>837</ele>
        <time>2017-10-11T18:06:53Z</time>
      </trkpt>
      <trkpt lat="44.03296" lon="5.6207">
        <ele>854</ele>
        <time>2017-10-11T18:08:53Z</time>
      </trkpt>
      <trkpt lat="44.03196" lon="5.62458">
        <ele>829</ele>
        <time>2017-10-11T18:10:53Z</time>
      </trkpt>
      <trkpt lat="44.03347" lon="5.62578">
        <ele>808</ele>
        <time>2017-10-11T18:12:53Z</time>
      </trkpt>
      <trkpt lat="44.03458" lon="5.62632">
        <ele>788</ele>
        <time>2017-10-11T18:14:53Z</time>
      </trkpt>
      <trkpt lat="44.03537" lon="5.62602">
        <ele>792</ele>
        <time>2017-10-11T18:16:53Z</time>
      </trkpt>
      <trkpt lat="44.0366" lon="5.62531">
        <ele>789</ele>
        <time>2017-10-11T18:18:53Z</time>
      </trkpt>
      <trkpt lat="44.03589" lon="5.62686">
        <ele>775</ele>
        <time>2017-10-11T18:20:53Z</time>
      </trkpt>
      <trkpt lat="44.03628" lon="5.62821">
        <ele>774</ele>
        <time>2017-10-11T18:22:53Z</time>
      </trkpt>
      <trkpt lat="44.03765" lon="5.62868">
        <ele>789</ele>
        <time>2017-10-11T18:24:53Z</time>
      </trkpt>
      <trkpt lat="44.03872" lon="5.62878">
        <ele>798</ele>
        <time>2017-10-11T18:26:53Z</time>
      </trkpt>
      <trkpt lat="44.03851" lon="5.62852">
        <ele>799</ele>
        <time>2017-10-11T18:28:53Z</time>
      </trkpt>
      <trkpt lat="44.03849" lon="5.62863">
        <ele>798</ele>
        <time>2017-10-11T18:30:53Z</time>
      </trkpt>
      <trkpt lat="44.03874" lon="5.62872">
        <ele>799</ele>
        <time>2017-10-11T18:32:53Z</time>
      </trkpt>
      <trkpt lat="44.03827" lon="5.6288">
        <ele>796</ele>
        <time>2017-10-11T18:34:53Z</time>
      </trkpt>
      <trkpt lat="44.03827" lon="5.63011">
        <ele>789</ele>
        <time>2017-10-11T18:36:53Z</time>
      </trkpt>
      <trkpt lat="44.03823" lon="5.63078">
        <ele>784</ele>
        <time>2017-10-11T18:38:53Z</time>
      </trkpt>
      <trkpt lat="44.03729" lon="5.63378">
        <ele>760</ele>
        <time>2017-10-11T18:40:53Z</time>
      </trkpt>
      <trkpt lat="44.03759" lon="5.63503">
        <ele>753</ele>
        <time>2017-10-11T18:42:53Z</time>
      </trkpt>
      <trkpt lat="44.03794" lon="5.63548">
        <ele>752</ele>
        <time>2017-10-11T18:44:53Z</time>
      </trkpt>
      <trkpt lat="44.03817" lon="5.63641">
        <ele>748</ele>
        <time>2017-10-11T18:46:53Z</time>
      </trkpt>
      <trkpt lat="44.03859" lon="5.63718">
        <ele>743</ele>
        <time>2017-10-11T18:48:53Z</time>
      </trkpt>
      <trkpt lat="44.03779" lon="5.64398">
        <ele>727</ele>
        <time>2017-10-11T18:50:53Z</time>
      </trkpt>
      <trkpt lat="44.03677" lon="5.64437">
        <ele>738</ele>
        <time>2017-10-11T18:52:53Z</time>
      </trkpt>
      <trkpt lat="44.03907" lon="5.64821">
        <ele>773</ele>
        <time>2017-10-11T18:54:53Z</time>
      </trkpt>
      <trkpt lat="44.03828" lon="5.64808">
        <ele>780</ele>
        <time>2017-10-11T18:56:53Z</time>
      </trkpt>
      <trkpt lat="44.03808" lon="5.64761">
        <ele>775</ele>
        <time>2017-10-11T18:58:53Z</time>
      </trkpt>
      <trkpt lat="44.03746" lon="5.6472">
        <ele>781</ele>
        <time>2017-10-11T19:00:53Z</time>
      </trkpt>
      <trkpt lat="44.03682" lon="5.6463">
        <ele>780</ele>
        <time>2017-10-11T19:02:53Z</time>
      </trkpt>
      <trkpt lat="44.03702" lon="5.64763">
        <ele>792</ele>
        <time>2017-10-11T19:04:53Z</time>
      </trkpt>
      <trkpt lat="44.03659" lon="5.64922">
        <ele>800</ele>
        <time>2017-10-11T19:06:53Z</time>
      </trkpt>
      <trkpt lat="44.03564" lon="5.65132">
        <ele>807</ele>
        <time>2017-10-11T19:08:53Z</time>
      </trkpt>
      <trkpt lat="44.035" lon="5.65125">
        <ele>801</ele>
        <time>2017-10-11T19:10:53Z</time>
      </trkpt>
      <trkpt lat="44.03378" lon="5.65188">
        <ele>802</ele>
        <time>2017-10-11T19:12:53Z</time>
      </trkpt>
      <trkpt lat="44.03265" lon="5.6525">
        <ele>801</ele>
        <time>2017-10-11T19:14:53Z</time>
      </trkpt>
      <trkpt lat="44.03177" lon="5.65404">
        <ele>800</ele>
        <time>2017-10-11T19:16:53Z</time>
      </trkpt>
      <trkpt lat="44.03033" lon="5.65708">
        <ele>791</ele>
        <time>2017-10-11T19:18:53Z</time>
      </trkpt>
      <trkpt lat="44.03012" lon="5.66025">
        <ele>779</ele>
        <time>2017-10-11T19:20:53Z</time>
      </trkpt>
      <trkpt lat="44.02774" lon="5.66253">
        <ele>769</ele>
        <time>2017-10-11T19:22:53Z</time>
      </trkpt>
      <trkpt lat="44.02552" lon="5.66545">
        <ele>763</ele>
        <time>2017-10-11T19:24:53Z</time>
      </trkpt>
      <trkpt lat="44.02435" lon="5.66759">
        <ele>752</ele>
        <time>2017-10-11T19:26:53Z</time>
      </trkpt>
      <trkpt lat="44.0232" lon="5.66841">
        <ele>741</ele>
        <time>2017-10-11T19:28:53Z</time>
      </trkpt>
      <trkpt lat="44.02277" lon="5.66944">
        <ele>734</ele>
        <time>2017-10-11T19:30:53Z</time>
      </trkpt>
      <trkpt lat="44.02169" lon="5.67115">
        <ele>721</ele>
        <time>2017-10-11T19:32:53Z</time>
      </trkpt>
      <trkpt lat="44.0216" lon="5.6721">
        <ele>719</ele>
        <time>2017-10-11T19:34:53Z</time>
      </trkpt>
      <trkpt lat="44.01999" lon="5.6742">
        <ele>704</ele>
        <time>2017-10-11T19:36:53Z</time>
      </trkpt>
      <trkpt lat="44.02163" lon="5.67579">
        <ele>691</ele>
        <time>2017-10-11T19:38:53Z</time>
      </trkpt>
      <trkpt lat="44.02397" lon="5.67884">
        <ele>664</ele>
        <time>2017-10-11T19:40:53Z</time>
      </trkpt>
      <trkpt lat="44.02391" lon="5.68034">
        <ele>650</ele>
        <time>2017-10-11T19:42:53Z</time>
      </trkpt>
      <trkpt lat="44.02395" lon="5.68172">
        <ele>645</ele>
        <time>2017-10-11T19:44:53Z</time>
      </trkpt>
      <trkpt lat="44.02396" lon="5.68212">
        <ele>649</ele>
        <time>2017-10-11T19:46:53Z</time>
      </trkpt>
      <trkpt lat="44.02302" lon="5.68195">
        <ele>647</ele>
        <time>2017-10-11T19:48:53Z</time>
      </trkpt>
      <trkpt lat="44.02213" lon="5.6818">
        <ele>646</ele>
        <time>2017-10-11T19:50:53Z</time>
      </trkpt>
      <trkpt lat="44.02151" lon="5.68189">
        <ele>645</ele>
        <time>2017-10-11T19:52:53Z</time>
      </trkpt>
      <trkpt lat="44.02052" lon="5.6821">
        <ele>641</ele>
        <time>2017-10-11T19:54:53Z</time>
      </trkpt>
      <trkpt lat="44.0199" lon="5.68245">
        <ele>640</ele>
        <time>2017-10-11T19:56:53Z</time>
      </trkpt>
      <trkpt lat="44.01924" lon="5.68279">
        <ele>639</ele>
        <time>2017-10-11T19:58:53Z</time>
      </trkpt>
      <trkpt lat="44.01834" lon="5.68318">
        <ele>640</ele>
        <time>2017-10-11T20:00:53Z</time>
      </trkpt>
      <trkpt lat="44.01721" lon="5.68303">
        <ele>636</ele>
        <time>2017-10-11T20:02:53Z</time>
      </trkpt>
      <trkpt lat="44.01706" lon="5.6835">
        <ele>639</ele>
        <time>2017-10-11T20:04:53Z</time>
      </trkpt>
      <trkpt lat="44.0173" lon="5.68451">
        <ele>647</ele>
        <time>2017-10-11T20:06:53Z</time>
      </trkpt>
      <trkpt lat="44.01726" lon="5.68515">
        <ele>656</ele>
        <time>2017-10-11T20:08:53Z</time>
      </trkpt>
      <trkpt lat="44.01662" lon="5.68593">
        <ele>668</ele>
        <time>2017-10-11T20:10:53Z</time>
      </trkpt>
      <trkpt lat="44.01716" lon="5.68745">
        <ele>689</ele>
        <time>2017-10-11T20:12:53Z</time>
      </trkpt>
      <trkpt lat="44.01818" lon="5.68889">
        <ele>701</ele>
        <time>2017-10-11T20:14:53Z</time>
      </trkpt>
      <trkpt lat="44.01881" lon="5.68936">
        <ele>704</ele>
        <time>2017-10-11T20:16:53Z</time>
      </trkpt>
      <trkpt lat="44.02022" lon="5.69018">
        <ele>711</ele>
        <time>2017-10-11T20:18:53Z</time>
      </trkpt>
      <trkpt lat="44.0208" lon="5.69084">
        <ele>710</ele>
        <time>2017-10-11T20:20:53Z</time>
      </trkpt>
      <trkpt lat="44.02117" lon="5.69117">
        <ele>718</ele>
        <time>2017-10-11T20:22:53Z</time>
      </trkpt>
      <trkpt lat="44.02206" lon="5.69051">
        <ele>722</ele>
        <time>2017-10-11T20:24:53Z</time>
      </trkpt>
      <trkpt lat="44.02376" lon="5.68961">
        <ele>738</ele>
        <time>2017-10-11T20:26:53Z</time>
      </trkpt>
      <trkpt lat="44.02493" lon="5.68922">
        <ele>742</ele>
        <time>2017-10-11T20:28:53Z</time>
      </trkpt>
      <trkpt lat="44.027" lon="5.68746">
        <ele>752</ele>
        <time>2017-10-11T20:30:53Z</time>
      </trkpt>
      <trkpt lat="44.02925" lon="5.68939">
        <ele>772</ele>
        <time>2017-10-11T20:32:53Z</time>
      </trkpt>
      <trkpt lat="44.03008" lon="5.6909">
        <ele>774</ele>
        <time>2017-10-11T20:34:53Z</time>
      </trkpt>
      <trkpt lat="44.03184" lon="5.69201">
        <ele>783</ele>
        <time>2017-10-11T20:36:53Z</time>
      </trkpt>
      <trkpt lat="44.03274" lon="5.6942">
        <ele>785</ele>
        <time>2017-10-11T20:38:53Z</time>
      </trkpt>
      <trkpt lat="44.0341" lon="5.6957">
        <ele>783</ele>
        <time>2017-10-11T20:40:53Z</time>
      </trkpt>
      <trkpt lat="44.03511" lon="5.6972">
        <ele>766</ele>
        <time>2017-10-11T20:42:53Z</time>
      </trkpt>
      <trkpt lat="44.03672" lon="5.69914">
        <ele>739</ele>
        <time>2017-10-11T20:44:53Z</time>
      </trkpt>
      <trkpt lat="44.03755" lon="5.70047">
        <ele>723</ele>
        <time>2017-10-11T20:46:53Z</time>
      </trkpt>
      <trkpt lat="44.03789" lon="5.70265">
        <ele>706</ele>
        <time>2017-10-11T20:48:53Z</time>
      </trkpt>
      <trkpt lat="44.03783" lon="5.70476">
        <ele>692</ele>
        <time>2017-10-11T20:50:53Z</time>
      </trkpt>
      <trkpt lat="44.03656" lon="5.70802">
        <ele>674</ele>
        <time>2017-10-11T20:52:53Z</time>
      </trkpt>
      <trkpt lat="44.03601" lon="5.71089">
        <ele>679</ele>
        <time>2017-10-11T20:54:53Z</time>
      </trkpt>
      <trkpt lat="44.03524" lon="5.71119">
        <ele>682</ele>
        <time>2017-10-11T20:56:53Z</time>
      </trkpt>
      <trkpt lat="44.0336" lon="5.71201">
        <ele>679</ele>
        <time>2017-10-11T20:58:53Z</time>
      </trkpt>
      <trkpt lat="44.03376" lon="5.71377">
        <ele>689</ele>
        <time>2017-10-11T21:00:53Z</time>
      </trkpt>
      <trkpt lat="44.03295" lon="5.7151">
        <ele>673</ele>
        <time>2017-10-11T21:02:53Z</time>
      </trkpt>
      <trkpt lat="44.03339" lon="5.71991">
        <ele>660</ele>
        <time>2017-10-11T21:04:53Z</time>
      </trkpt>
      <trkpt lat="44.03178" lon="5.71978">
        <ele>645</ele>
        <time>2017-10-11T21:06:53Z</time>
      </trkpt>
      <trkpt lat="44.03052" lon="5.71845">
        <ele>637</ele>
        <time>2017-10-11T21:08:53Z</time>
      </trkpt>
      <trkpt lat="44.02975" lon="5.71892">
        <ele>630</ele>
        <time>2017-10-11T21:10:53Z</time>
      </trkpt>
      <trkpt lat="44.03055" lon="5.71991">
        <ele>632</ele>
        <time>2017-10-11T21:12:53Z</time>
      </trkpt>
      <trkpt lat="44.03153" lon="5.72111">
        <ele>628</ele>
        <time>2017-10-11T21:14:53Z</time>
      </trkpt>
      <trkpt lat="44.03258" lon="5.72201">
        <ele>629</ele>
        <time>2017-10-11T21:16:53Z</time>
      </trkpt>
      <trkpt lat="44.03258" lon="5.72368">
        <ele>626</ele>
        <time>2017-10-11T21:18:53Z</time>
      </trkpt>
    </trkseg>
  </trk>
</gpx>